ETD205 VABB-OMAA
Flight info
| Callsign | ETD205 |
|---|---|
| Flight time | N/A |
| Altitude | 40000 |
| Route | RAXET2A BISET P574 TOTOX L555 TOLDA M628 TULBU P558 SODEX N563 NOBTO |
| Aircraft | A35K/H-SDE2E3GHIJ3J4J5LM1ORWXY/LB1D1 |
Departure
| Time | 2026-05-06 12:21 |
|---|---|
| Airport | Chhatrapati Shivaji Maharaj International Airport (VABB) |
Arrival
| Time | N/A |
|---|---|
| Airport | Zayed International Airport (OMAA) |
| Time | Latitude | Longitude | Altitude | Speed | Heading |
|---|---|---|---|---|---|
| 2026-05-06 12:00 | 19.09336 | 72.87272 | 48 ft | 0 kts | 306° |
| 2026-05-06 12:11 | 19.09335 | 72.87274 | 55 ft | 2 kts | 306° |
| 2026-05-06 12:12 | 19.09324 | 72.87290 | 47 ft | 3 kts | 306° |
| 2026-05-06 12:12 | 19.09313 | 72.87306 | 47 ft | 3 kts | 306° |
| 2026-05-06 12:12 | 19.09304 | 72.87325 | 48 ft | 3 kts | 272° |
| 2026-05-06 12:12 | 19.09307 | 72.87346 | 47 ft | 3 kts | 235° |
| 2026-05-06 12:13 | 19.09320 | 72.87361 | 47 ft | 3 kts | 205° |
| 2026-05-06 12:13 | 19.09329 | 72.87365 | 47 ft | 0 kts | 187° |
| 2026-05-06 12:17 | 19.09315 | 72.87365 | 47 ft | 6 kts | 181° |
| 2026-05-06 12:18 | 19.09259 | 72.87349 | 49 ft | 10 kts | 216° |
| 2026-05-06 12:18 | 19.09229 | 72.87284 | 50 ft | 11 kts | 229° |
| 2026-05-06 12:18 | 19.09151 | 72.87264 | 52 ft | 13 kts | 181° |
| 2026-05-06 12:18 | 19.09066 | 72.87277 | 48 ft | 10 kts | 136° |
| 2026-05-06 12:19 | 19.09052 | 72.87364 | 50 ft | 18 kts | 91° |
| 2026-05-06 12:19 | 19.09053 | 72.87523 | 50 ft | 23 kts | 90° |
| 2026-05-06 12:19 | 19.09056 | 72.87705 | 48 ft | 26 kts | 89° |
| 2026-05-06 12:19 | 19.09059 | 72.87907 | 49 ft | 29 kts | 89° |
| 2026-05-06 12:20 | 19.09048 | 72.88026 | 47 ft | 11 kts | 124° |
| 2026-05-06 12:20 | 19.08969 | 72.88051 | 48 ft | 14 kts | 179° |
| 2026-05-06 12:20 | 19.08888 | 72.88023 | 50 ft | 9 kts | 246° |
| 2026-05-06 12:20 | 19.08887 | 72.87946 | 52 ft | 16 kts | 269° |
| 2026-05-06 12:21 | 19.08884 | 72.87623 | 48 ft | 81 kts | 269° |
| 2026-05-06 12:21 | 19.08871 | 72.86778 | 52 ft | 148 kts | 269° |
| 2026-05-06 12:21 | 19.08848 | 72.85560 | 561 ft | 165 kts | 272° |
| 2026-05-06 12:21 | 19.08861 | 72.84358 | 1400 ft | 167 kts | 274° |
| 2026-05-06 12:22 | 19.08881 | 72.83033 | 1729 ft | 193 kts | 273° |
| 2026-05-06 12:22 | 19.08867 | 72.81519 | 2043 ft | 219 kts | 271° |
| 2026-05-06 12:22 | 19.08826 | 72.79831 | 2443 ft | 243 kts | 272° |
| 2026-05-06 12:22 | 19.08784 | 72.77986 | 3034 ft | 257 kts | 271° |
| 2026-05-06 12:23 | 19.08740 | 72.76055 | 3700 ft | 268 kts | 272° |
| 2026-05-06 12:23 | 19.08822 | 72.74081 | 4539 ft | 270 kts | 277° |
| 2026-05-06 12:23 | 19.09026 | 72.72098 | 5339 ft | 274 kts | 278° |
| 2026-05-06 12:23 | 19.09248 | 72.70080 | 6143 ft | 278 kts | 277° |
| 2026-05-06 12:24 | 19.09470 | 72.68046 | 6939 ft | 280 kts | 277° |
| 2026-05-06 12:24 | 19.09693 | 72.65990 | 7780 ft | 283 kts | 276° |
| 2026-05-06 12:24 | 19.09919 | 72.63903 | 8665 ft | 286 kts | 275° |
| 2026-05-06 12:24 | 19.10145 | 72.61814 | 9615 ft | 288 kts | 275° |
| 2026-05-06 12:25 | 19.10373 | 72.59682 | 10293 ft | 300 kts | 275° |
| 2026-05-06 12:25 | 19.10614 | 72.57409 | 10672 ft | 322 kts | 275° |
| 2026-05-06 12:25 | 19.10874 | 72.54984 | 11030 ft | 341 kts | 276° |
| 2026-05-06 12:25 | 19.11148 | 72.52430 | 11436 ft | 357 kts | 276° |
| 2026-05-06 12:26 | 19.11431 | 72.49794 | 12048 ft | 364 kts | 276° |
| 2026-05-06 12:26 | 19.11719 | 72.47106 | 12715 ft | 371 kts | 277° |
| 2026-05-06 12:26 | 19.12010 | 72.44384 | 13370 ft | 377 kts | 277° |
| 2026-05-06 12:26 | 19.12307 | 72.41609 | 13959 ft | 382 kts | 277° |
| 2026-05-06 12:27 | 19.12605 | 72.38811 | 14640 ft | 384 kts | 277° |
| 2026-05-06 12:27 | 19.12904 | 72.35998 | 15301 ft | 386 kts | 277° |
| 2026-05-06 12:27 | 19.13204 | 72.33168 | 15932 ft | 388 kts | 277° |
| 2026-05-06 12:27 | 19.13505 | 72.30322 | 16570 ft | 391 kts | 277° |
| 2026-05-06 12:28 | 19.13809 | 72.27452 | 17192 ft | 393 kts | 277° |
| 2026-05-06 12:28 | 19.14113 | 72.24573 | 17859 ft | 396 kts | 277° |
| 2026-05-06 12:28 | 19.14421 | 72.21656 | 18287 ft | 403 kts | 277° |
| 2026-05-06 12:28 | 19.14732 | 72.18701 | 18791 ft | 405 kts | 277° |
| 2026-05-06 12:29 | 19.15043 | 72.15735 | 19369 ft | 406 kts | 278° |
| 2026-05-06 12:29 | 19.15354 | 72.12777 | 19986 ft | 405 kts | 278° |
| 2026-05-06 12:29 | 19.15709 | 72.09822 | 20596 ft | 405 kts | 281° |
| 2026-05-06 12:29 | 19.16228 | 72.06879 | 21058 ft | 409 kts | 283° |
| 2026-05-06 12:30 | 19.16842 | 72.03941 | 21565 ft | 411 kts | 284° |
| 2026-05-06 12:30 | 19.17507 | 72.00978 | 22069 ft | 414 kts | 284° |
| 2026-05-06 12:30 | 19.18186 | 71.98010 | 22586 ft | 417 kts | 284° |
| 2026-05-06 12:30 | 19.18866 | 71.95026 | 23123 ft | 419 kts | 284° |
| 2026-05-06 12:31 | 19.19540 | 71.92018 | 23588 ft | 421 kts | 284° |
| 2026-05-06 12:31 | 19.20210 | 71.88993 | 23958 ft | 425 kts | 284° |
| 2026-05-06 12:31 | 19.20881 | 71.85929 | 24289 ft | 429 kts | 284° |
| 2026-05-06 12:31 | 19.21551 | 71.82848 | 24756 ft | 430 kts | 284° |
| 2026-05-06 12:32 | 19.22220 | 71.79765 | 25288 ft | 431 kts | 284° |
| 2026-05-06 12:32 | 19.22893 | 71.76661 | 25723 ft | 435 kts | 284° |
| 2026-05-06 12:32 | 19.23571 | 71.73530 | 26183 ft | 438 kts | 284° |
| 2026-05-06 12:32 | 19.24255 | 71.70373 | 26668 ft | 442 kts | 284° |
| 2026-05-06 12:33 | 19.24943 | 71.67196 | 27159 ft | 445 kts | 284° |
| 2026-05-06 12:33 | 19.25636 | 71.63997 | 27640 ft | 448 kts | 284° |
| 2026-05-06 12:33 | 19.26334 | 71.60767 | 28106 ft | 452 kts | 284° |
| 2026-05-06 12:33 | 19.27037 | 71.57514 | 28600 ft | 455 kts | 284° |
| 2026-05-06 12:34 | 19.27745 | 71.54236 | 29047 ft | 459 kts | 284° |
| 2026-05-06 12:34 | 19.28459 | 71.50924 | 29441 ft | 464 kts | 284° |
| 2026-05-06 12:34 | 19.29180 | 71.47581 | 29882 ft | 467 kts | 284° |
| 2026-05-06 12:34 | 19.29904 | 71.44217 | 30266 ft | 470 kts | 284° |
| 2026-05-06 12:35 | 19.30631 | 71.40833 | 30651 ft | 473 kts | 284° |
| 2026-05-06 12:35 | 19.31363 | 71.37425 | 31003 ft | 477 kts | 284° |
| 2026-05-06 12:35 | 19.32100 | 71.33993 | 31376 ft | 479 kts | 283° |
| 2026-05-06 12:35 | 19.32840 | 71.30538 | 31726 ft | 482 kts | 283° |
| 2026-05-06 12:36 | 19.33583 | 71.27072 | 32063 ft | 485 kts | 283° |
| 2026-05-06 12:36 | 19.34329 | 71.23584 | 32400 ft | 487 kts | 283° |
| 2026-05-06 12:36 | 19.35080 | 71.20071 | 32712 ft | 490 kts | 283° |
| 2026-05-06 12:36 | 19.35833 | 71.16545 | 33032 ft | 492 kts | 283° |
| 2026-05-06 12:37 | 19.36589 | 71.13004 | 33377 ft | 494 kts | 283° |
| 2026-05-06 12:37 | 19.37345 | 71.09458 | 33828 ft | 492 kts | 283° |
| 2026-05-06 12:37 | 19.38097 | 71.05924 | 34225 ft | 491 kts | 283° |
| 2026-05-06 12:37 | 19.38846 | 71.02404 | 34614 ft | 490 kts | 283° |
| 2026-05-06 12:38 | 19.39592 | 70.98891 | 35011 ft | 488 kts | 283° |
| 2026-05-06 12:38 | 19.40336 | 70.95389 | 35390 ft | 487 kts | 283° |
| 2026-05-06 12:38 | 19.41079 | 70.91887 | 35757 ft | 486 kts | 283° |
| 2026-05-06 12:38 | 19.41817 | 70.88402 | 36130 ft | 485 kts | 283° |
| 2026-05-06 12:39 | 19.42555 | 70.84917 | 36443 ft | 485 kts | 283° |
| 2026-05-06 12:39 | 19.43290 | 70.81439 | 36814 ft | 483 kts | 283° |
| 2026-05-06 12:39 | 19.44022 | 70.77977 | 37248 ft | 480 kts | 283° |
| 2026-05-06 12:39 | 19.44747 | 70.74541 | 37612 ft | 478 kts | 283° |
| 2026-05-06 12:40 | 19.45472 | 70.71103 | 37934 ft | 478 kts | 283° |
| 2026-05-06 12:40 | 19.46185 | 70.67719 | 38239 ft | 477 kts | 283° |
| 2026-05-06 12:40 | 19.46915 | 70.64246 | 38543 ft | 476 kts | 283° |
| 2026-05-06 12:40 | 19.47634 | 70.60826 | 38791 ft | 475 kts | 283° |
| 2026-05-06 12:41 | 19.48353 | 70.57407 | 39017 ft | 475 kts | 283° |
| 2026-05-06 12:41 | 19.49069 | 70.53995 | 39248 ft | 474 kts | 283° |
| 2026-05-06 12:41 | 19.49785 | 70.50578 | 39426 ft | 475 kts | 283° |
| 2026-05-06 12:41 | 19.50501 | 70.47160 | 39601 ft | 475 kts | 283° |
| 2026-05-06 12:42 | 19.51217 | 70.43737 | 39773 ft | 476 kts | 283° |
| 2026-05-06 12:42 | 19.51932 | 70.40314 | 39802 ft | 475 kts | 283° |
| 2026-05-06 12:42 | 19.53358 | 70.33483 | 39807 ft | 474 kts | 283° |
| 2026-05-06 12:43 | 19.54779 | 70.26656 | 39803 ft | 474 kts | 283° |
| 2026-05-06 12:43 | 19.56199 | 70.19827 | 39804 ft | 474 kts | 283° |
| 2026-05-06 12:44 | 19.57618 | 70.12988 | 39804 ft | 475 kts | 283° |
| 2026-05-06 12:44 | 19.59034 | 70.06147 | 39808 ft | 475 kts | 283° |
| 2026-05-06 12:45 | 19.60449 | 69.99301 | 39807 ft | 475 kts | 283° |
| 2026-05-06 12:46 | 19.62564 | 69.89036 | 39809 ft | 475 kts | 283° |
| 2026-05-06 12:46 | 19.63971 | 69.82192 | 39810 ft | 475 kts | 283° |
| 2026-05-06 12:47 | 19.65362 | 69.75411 | 39808 ft | 474 kts | 283° |
| 2026-05-06 12:47 | 19.66762 | 69.68574 | 39809 ft | 473 kts | 283° |
| 2026-05-06 12:48 | 19.68157 | 69.61752 | 39808 ft | 473 kts | 283° |
| 2026-05-06 12:48 | 19.69549 | 69.54923 | 39810 ft | 473 kts | 282° |
| 2026-05-06 12:49 | 19.70940 | 69.48090 | 39815 ft | 474 kts | 282° |
| 2026-05-06 12:49 | 19.72330 | 69.41246 | 39813 ft | 475 kts | 282° |
| 2026-05-06 12:50 | 19.73718 | 69.34398 | 39812 ft | 475 kts | 282° |
| 2026-05-06 12:50 | 19.75104 | 69.27544 | 39813 ft | 475 kts | 282° |
| 2026-05-06 12:51 | 19.76487 | 69.20693 | 39815 ft | 475 kts | 282° |
| 2026-05-06 12:51 | 19.77869 | 69.13837 | 39812 ft | 476 kts | 282° |
| 2026-05-06 12:52 | 19.79251 | 69.06963 | 39812 ft | 476 kts | 282° |
| 2026-05-06 12:52 | 19.80631 | 69.00083 | 39812 ft | 476 kts | 282° |
| 2026-05-06 12:53 | 19.82008 | 68.93206 | 39812 ft | 476 kts | 282° |
| 2026-05-06 12:53 | 19.83382 | 68.86327 | 39819 ft | 476 kts | 282° |
| 2026-05-06 12:54 | 19.84751 | 68.79457 | 39815 ft | 475 kts | 282° |
| 2026-05-06 12:54 | 19.86115 | 68.72602 | 39814 ft | 475 kts | 282° |
| 2026-05-06 12:55 | 19.87477 | 68.65740 | 39814 ft | 474 kts | 282° |
| 2026-05-06 12:55 | 19.88836 | 68.58881 | 39823 ft | 474 kts | 282° |
| 2026-05-06 12:56 | 19.90193 | 68.52019 | 39821 ft | 475 kts | 282° |
| 2026-05-06 12:56 | 19.91548 | 68.45151 | 39821 ft | 476 kts | 282° |
| 2026-05-06 12:57 | 19.92903 | 68.38269 | 39824 ft | 476 kts | 282° |
| 2026-05-06 12:57 | 19.94255 | 68.31385 | 39820 ft | 476 kts | 282° |
| 2026-05-06 12:58 | 19.95604 | 68.24503 | 39820 ft | 476 kts | 282° |
| 2026-05-06 12:58 | 19.96952 | 68.17612 | 39818 ft | 476 kts | 282° |
| 2026-05-06 12:59 | 19.98297 | 68.10718 | 39826 ft | 477 kts | 282° |
| 2026-05-06 12:59 | 19.99643 | 68.03809 | 39822 ft | 477 kts | 282° |
| 2026-05-06 13:00 | 20.00758 | 67.98072 | 39826 ft | 477 kts | 282° |
| 2026-05-06 13:00 | 20.02098 | 67.91165 | 39826 ft | 477 kts | 282° |
| 2026-05-06 13:01 | 20.03434 | 67.84264 | 39826 ft | 476 kts | 282° |
| 2026-05-06 13:01 | 20.04765 | 67.77374 | 39823 ft | 475 kts | 282° |
| 2026-05-06 13:02 | 20.06091 | 67.70494 | 39820 ft | 475 kts | 282° |
| 2026-05-06 13:02 | 20.07415 | 67.63608 | 39823 ft | 475 kts | 282° |
| 2026-05-06 13:03 | 20.08737 | 67.56721 | 39826 ft | 475 kts | 282° |
| 2026-05-06 13:03 | 20.10055 | 67.49833 | 39822 ft | 476 kts | 282° |
| 2026-05-06 13:04 | 20.11374 | 67.42933 | 39824 ft | 476 kts | 282° |
| 2026-05-06 13:04 | 20.12690 | 67.36027 | 39822 ft | 476 kts | 282° |
| 2026-05-06 13:05 | 20.14004 | 67.29121 | 39821 ft | 476 kts | 282° |
| 2026-05-06 13:05 | 20.15316 | 67.22209 | 39824 ft | 476 kts | 282° |
| 2026-05-06 13:06 | 20.16624 | 67.15299 | 39827 ft | 477 kts | 281° |
| 2026-05-06 13:06 | 20.17923 | 67.08427 | 39828 ft | 477 kts | 281° |
| 2026-05-06 13:07 | 20.19236 | 67.01461 | 39825 ft | 477 kts | 281° |
| 2026-05-06 13:07 | 20.20529 | 66.94584 | 39824 ft | 477 kts | 281° |
| 2026-05-06 13:08 | 20.21829 | 66.87661 | 39823 ft | 476 kts | 281° |
| 2026-05-06 13:08 | 20.23124 | 66.80746 | 39823 ft | 476 kts | 281° |
| 2026-05-06 13:09 | 20.24417 | 66.73824 | 39824 ft | 477 kts | 281° |
| 2026-05-06 13:09 | 20.25706 | 66.66906 | 39822 ft | 477 kts | 281° |
| 2026-05-06 13:10 | 20.26995 | 66.59979 | 39824 ft | 476 kts | 281° |
| 2026-05-06 13:10 | 20.28279 | 66.53059 | 39826 ft | 477 kts | 281° |
| 2026-05-06 13:11 | 20.29562 | 66.46127 | 39824 ft | 477 kts | 281° |
| 2026-05-06 13:11 | 20.30842 | 66.39198 | 39830 ft | 477 kts | 281° |
| 2026-05-06 13:12 | 20.32120 | 66.32263 | 39827 ft | 477 kts | 281° |
| 2026-05-06 13:12 | 20.33396 | 66.25324 | 39826 ft | 477 kts | 281° |
| 2026-05-06 13:13 | 20.34669 | 66.18387 | 39829 ft | 477 kts | 281° |
| 2026-05-06 13:13 | 20.35939 | 66.11444 | 39831 ft | 477 kts | 281° |
| 2026-05-06 13:14 | 20.37207 | 66.04503 | 39827 ft | 478 kts | 281° |
| 2026-05-06 13:14 | 20.38472 | 65.97558 | 39832 ft | 477 kts | 281° |
| 2026-05-06 13:15 | 20.39734 | 65.90611 | 39831 ft | 478 kts | 281° |
| 2026-05-06 13:15 | 20.40995 | 65.83658 | 39828 ft | 478 kts | 281° |
| 2026-05-06 13:16 | 20.42252 | 65.76709 | 39825 ft | 478 kts | 281° |
| 2026-05-06 13:16 | 20.43508 | 65.69749 | 39831 ft | 478 kts | 281° |
| 2026-05-06 13:17 | 20.44761 | 65.62790 | 39831 ft | 477 kts | 281° |
| 2026-05-06 13:17 | 20.46010 | 65.55833 | 39828 ft | 478 kts | 281° |
| 2026-05-06 13:18 | 20.47258 | 65.48872 | 39826 ft | 478 kts | 281° |
| 2026-05-06 13:18 | 20.48501 | 65.41915 | 39829 ft | 478 kts | 281° |
| 2026-05-06 13:19 | 20.49744 | 65.34949 | 39828 ft | 478 kts | 281° |
| 2026-05-06 13:19 | 20.50982 | 65.27988 | 39830 ft | 478 kts | 281° |
| 2026-05-06 13:20 | 20.52220 | 65.21011 | 39833 ft | 479 kts | 281° |
| 2026-05-06 13:20 | 20.53455 | 65.14039 | 39828 ft | 477 kts | 281° |
| 2026-05-06 13:21 | 20.54684 | 65.07076 | 39831 ft | 478 kts | 281° |
| 2026-05-06 13:21 | 20.56214 | 65.00181 | 39831 ft | 478 kts | 290° |
| 2026-05-06 13:22 | 20.59017 | 64.93776 | 39830 ft | 477 kts | 297° |
| 2026-05-06 13:22 | 20.62134 | 64.87510 | 39828 ft | 479 kts | 298° |
| 2026-05-06 13:23 | 20.65279 | 64.81288 | 39831 ft | 479 kts | 298° |
| 2026-05-06 13:23 | 20.68423 | 64.75023 | 39828 ft | 478 kts | 298° |
| 2026-05-06 13:24 | 20.71539 | 64.68771 | 39822 ft | 477 kts | 297° |
| 2026-05-06 13:24 | 20.74659 | 64.62493 | 39825 ft | 478 kts | 297° |
| 2026-05-06 13:25 | 20.77782 | 64.56204 | 39835 ft | 480 kts | 297° |
| 2026-05-06 13:25 | 20.80901 | 64.49916 | 39827 ft | 478 kts | 297° |
| 2026-05-06 13:26 | 20.84004 | 64.43656 | 39829 ft | 476 kts | 297° |
| 2026-05-06 13:26 | 20.87101 | 64.37398 | 39828 ft | 477 kts | 297° |
| 2026-05-06 13:27 | 20.90213 | 64.31105 | 39828 ft | 479 kts | 297° |
| 2026-05-06 13:27 | 20.93324 | 64.24806 | 39833 ft | 479 kts | 297° |
| 2026-05-06 13:28 | 20.96428 | 64.18514 | 39831 ft | 477 kts | 297° |
| 2026-05-06 13:28 | 20.99528 | 64.12222 | 39832 ft | 478 kts | 297° |
| 2026-05-06 13:29 | 21.02634 | 64.05911 | 39833 ft | 479 kts | 297° |
| 2026-05-06 13:29 | 21.05755 | 63.99562 | 39831 ft | 479 kts | 297° |
| 2026-05-06 13:30 | 21.08856 | 63.93245 | 39833 ft | 479 kts | 297° |
| 2026-05-06 13:30 | 21.11950 | 63.86938 | 39831 ft | 479 kts | 297° |
| 2026-05-06 13:31 | 21.15049 | 63.80611 | 39832 ft | 480 kts | 297° |
| 2026-05-06 13:31 | 21.18144 | 63.74286 | 39832 ft | 479 kts | 297° |
| 2026-05-06 13:32 | 21.21237 | 63.67957 | 39830 ft | 479 kts | 297° |
| 2026-05-06 13:32 | 21.24304 | 63.61673 | 39833 ft | 479 kts | 297° |
| 2026-05-06 13:33 | 21.27388 | 63.55348 | 39832 ft | 479 kts | 297° |
| 2026-05-06 13:33 | 21.30472 | 63.49014 | 39833 ft | 479 kts | 297° |
| 2026-05-06 13:34 | 21.33550 | 63.42686 | 39831 ft | 479 kts | 297° |
| 2026-05-06 13:34 | 21.36628 | 63.36350 | 39835 ft | 479 kts | 297° |
| 2026-05-06 13:35 | 21.39706 | 63.30007 | 39833 ft | 480 kts | 297° |
| 2026-05-06 13:35 | 21.42783 | 63.23658 | 39836 ft | 479 kts | 297° |
| 2026-05-06 13:36 | 21.45857 | 63.17309 | 39836 ft | 479 kts | 297° |
| 2026-05-06 13:36 | 21.48925 | 63.10963 | 39834 ft | 479 kts | 297° |
| 2026-05-06 13:37 | 21.51992 | 63.04611 | 39834 ft | 479 kts | 297° |
| 2026-05-06 13:37 | 21.55060 | 62.98251 | 39835 ft | 479 kts | 297° |
| 2026-05-06 13:38 | 21.58123 | 62.91892 | 39833 ft | 479 kts | 297° |
| 2026-05-06 13:38 | 21.61186 | 62.85526 | 39834 ft | 479 kts | 297° |
| 2026-05-06 13:39 | 21.64246 | 62.79160 | 39834 ft | 480 kts | 297° |
| 2026-05-06 13:39 | 21.67306 | 62.72784 | 39835 ft | 480 kts | 297° |
| 2026-05-06 13:40 | 21.70362 | 62.66410 | 39832 ft | 479 kts | 297° |
| 2026-05-06 13:40 | 21.73415 | 62.60034 | 39832 ft | 479 kts | 297° |
| 2026-05-06 13:41 | 21.76462 | 62.53662 | 39836 ft | 479 kts | 297° |
| 2026-05-06 13:41 | 21.79490 | 62.47323 | 39835 ft | 480 kts | 297° |
| 2026-05-06 13:42 | 21.82560 | 62.40887 | 39834 ft | 480 kts | 297° |
| 2026-05-06 13:42 | 21.84895 | 62.34232 | 39836 ft | 479 kts | 285° |
| 2026-05-06 13:43 | 21.86595 | 62.27288 | 39837 ft | 480 kts | 284° |
| 2026-05-06 13:43 | 21.88185 | 62.20323 | 39830 ft | 478 kts | 283° |
| 2026-05-06 13:44 | 21.89768 | 62.13370 | 39832 ft | 478 kts | 283° |
| 2026-05-06 13:44 | 21.91364 | 62.06411 | 39832 ft | 478 kts | 283° |
| 2026-05-06 13:45 | 21.92964 | 61.99458 | 39832 ft | 478 kts | 283° |
| 2026-05-06 13:45 | 21.95360 | 61.89025 | 39824 ft | 479 kts | 283° |
| 2026-05-06 13:46 | 21.96686 | 61.83239 | 39829 ft | 479 kts | 283° |
| 2026-05-06 13:46 | 21.98282 | 61.76253 | 39830 ft | 480 kts | 283° |
| 2026-05-06 13:47 | 21.99873 | 61.69279 | 39825 ft | 480 kts | 283° |
| 2026-05-06 13:47 | 22.01463 | 61.62292 | 39828 ft | 480 kts | 283° |
| 2026-05-06 13:48 | 22.03048 | 61.55313 | 39831 ft | 479 kts | 283° |
| 2026-05-06 13:48 | 22.04627 | 61.48344 | 39828 ft | 477 kts | 283° |
| 2026-05-06 13:49 | 22.06198 | 61.41398 | 39824 ft | 477 kts | 283° |
| 2026-05-06 13:49 | 22.07767 | 61.34446 | 39823 ft | 477 kts | 283° |
| 2026-05-06 13:50 | 22.09332 | 61.27496 | 39824 ft | 477 kts | 283° |
| 2026-05-06 13:50 | 22.10896 | 61.20537 | 39823 ft | 477 kts | 283° |
| 2026-05-06 13:51 | 22.12455 | 61.13586 | 39825 ft | 477 kts | 283° |
| 2026-05-06 13:51 | 22.14012 | 61.06630 | 39820 ft | 477 kts | 283° |
| 2026-05-06 13:52 | 22.15566 | 60.99670 | 39823 ft | 478 kts | 283° |
| 2026-05-06 13:52 | 22.17121 | 60.92692 | 39824 ft | 478 kts | 283° |
| 2026-05-06 13:53 | 22.18674 | 60.85710 | 39823 ft | 478 kts | 283° |
| 2026-05-06 13:53 | 22.20218 | 60.78754 | 39820 ft | 476 kts | 283° |
| 2026-05-06 13:54 | 22.21755 | 60.71812 | 39816 ft | 476 kts | 283° |
| 2026-05-06 13:54 | 22.23291 | 60.64863 | 39817 ft | 476 kts | 283° |
| 2026-05-06 13:55 | 22.24822 | 60.57917 | 39815 ft | 476 kts | 283° |
| 2026-05-06 13:55 | 22.26352 | 60.50961 | 39814 ft | 476 kts | 283° |
| 2026-05-06 13:56 | 22.27879 | 60.44004 | 39814 ft | 476 kts | 283° |
| 2026-05-06 13:56 | 22.29398 | 60.37052 | 39817 ft | 476 kts | 283° |
| 2026-05-06 13:57 | 22.30913 | 60.30083 | 39813 ft | 476 kts | 282° |
| 2026-05-06 13:57 | 22.32419 | 60.23127 | 39806 ft | 476 kts | 282° |
| 2026-05-06 13:58 | 22.33923 | 60.16155 | 39805 ft | 476 kts | 282° |
| 2026-05-06 13:58 | 22.35420 | 60.09189 | 39814 ft | 476 kts | 282° |
| 2026-05-06 13:59 | 22.36909 | 60.02233 | 39845 ft | 475 kts | 282° |
| 2026-05-06 13:59 | 22.38371 | 59.95259 | 39797 ft | 476 kts | 282° |
| 2026-05-06 14:00 | 22.39809 | 59.88276 | 39800 ft | 476 kts | 282° |
| 2026-05-06 14:00 | 22.41232 | 59.81296 | 39817 ft | 475 kts | 282° |
| 2026-05-06 14:01 | 22.42635 | 59.74314 | 39795 ft | 476 kts | 281° |
| 2026-05-06 14:01 | 22.44012 | 59.67311 | 39793 ft | 476 kts | 281° |
| 2026-05-06 14:02 | 22.45373 | 59.60301 | 39784 ft | 477 kts | 281° |
| 2026-05-06 14:02 | 22.46723 | 59.53282 | 39779 ft | 477 kts | 281° |
| 2026-05-06 14:03 | 22.48076 | 59.46256 | 39811 ft | 477 kts | 281° |
| 2026-05-06 14:03 | 22.49441 | 59.39256 | 39904 ft | 475 kts | 281° |